sensor_id;sensor_type;location;lat;lon;timestamp;P1;durP1;ratioP1;P2;durP2;ratioP2
72127;SDS011;60000;51.030;7.024;2023-12-20T00:02:08;20.13;;;12.10;;
72127;SDS011;60000;51.030;7.024;2023-12-20T00:04:33;19.53;;;12.03;;
72127;SDS011;60000;51.030;7.024;2023-12-20T00:06:58;19.73;;;12.10;;
72127;SDS011;60000;51.030;7.024;2023-12-20T00:09:24;20.10;;;12.30;;
72127;SDS011;60000;51.030;7.024;2023-12-20T00:11:49;17.70;;;10.83;;
72127;SDS011;60000;51.030;7.024;2023-12-20T00:14:14;16.77;;;9.97;;
72127;SDS011;60000;51.030;7.024;2023-12-20T00:16:40;21.63;;;10.75;;
72127;SDS011;60000;51.030;7.024;2023-12-20T00:19:05;17.67;;;10.10;;
72127;SDS011;60000;51.030;7.024;2023-12-20T00:21:30;16.93;;;10.03;;
72127;SDS011;60000;51.030;7.024;2023-12-20T00:23:55;20.27;;;10.50;;
72127;SDS011;60000;51.030;7.024;2023-12-20T00:26:21;21.50;;;10.70;;
72127;SDS011;60000;51.030;7.024;2023-12-20T00:28:46;15.23;;;8.50;;
72127;SDS011;60000;51.030;7.024;2023-12-20T00:31:11;12.03;;;6.70;;
72127;SDS011;60000;51.030;7.024;2023-12-20T00:33:37;10.97;;;5.67;;
72127;SDS011;60000;51.030;7.024;2023-12-20T00:36:02;9.63;;;4.80;;
72127;SDS011;60000;51.030;7.024;2023-12-20T00:38:27;8.23;;;4.18;;
72127;SDS011;60000;51.030;7.024;2023-12-20T00:40:53;8.53;;;3.93;;
72127;SDS011;60000;51.030;7.024;2023-12-20T00:43:18;6.67;;;3.40;;
72127;SDS011;60000;51.030;7.024;2023-12-20T00:45:43;8.60;;;3.90;;
72127;SDS011;60000;51.030;7.024;2023-12-20T00:48:09;6.80;;;3.10;;
72127;SDS011;60000;51.030;7.024;2023-12-20T00:50:34;7.73;;;3.50;;
72127;SDS011;60000;51.030;7.024;2023-12-20T00:52:59;8.90;;;3.20;;
72127;SDS011;60000;51.030;7.024;2023-12-20T00:55:24;7.73;;;2.97;;
72127;SDS011;60000;51.030;7.024;2023-12-20T00:57:50;6.90;;;2.47;;
72127;SDS011;60000;51.030;7.024;2023-12-20T01:00:15;5.60;;;2.27;;
72127;SDS011;60000;51.030;7.024;2023-12-20T01:02:41;8.15;;;2.90;;
72127;SDS011;60000;51.030;7.024;2023-12-20T01:05:06;6.67;;;2.40;;
72127;SDS011;60000;51.030;7.024;2023-12-20T01:07:32;6.68;;;2.20;;
72127;SDS011;60000;51.030;7.024;2023-12-20T01:09:57;6.50;;;2.40;;
72127;SDS011;60000;51.030;7.024;2023-12-20T01:12:23;6.13;;;2.40;;
72127;SDS011;60000;51.030;7.024;2023-12-20T01:14:48;6.33;;;2.30;;
72127;SDS011;60000;51.030;7.024;2023-12-20T01:17:13;8.17;;;2.43;;
72127;SDS011;60000;51.030;7.024;2023-12-20T01:19:39;6.37;;;2.30;;
72127;SDS011;60000;51.030;7.024;2023-12-20T01:22:04;6.73;;;2.60;;
72127;SDS011;60000;51.030;7.024;2023-12-20T01:24:30;7.47;;;2.72;;
72127;SDS011;60000;51.030;7.024;2023-12-20T01:26:55;8.13;;;3.03;;
72127;SDS011;60000;51.030;7.024;2023-12-20T01:29:20;9.03;;;3.07;;
72127;SDS011;60000;51.030;7.024;2023-12-20T01:31:45;8.33;;;3.70;;
72127;SDS011;60000;51.030;7.024;2023-12-20T01:34:11;8.20;;;3.70;;
72127;SDS011;60000;51.030;7.024;2023-12-20T01:36:36;8.10;;;3.50;;
72127;SDS011;60000;51.030;7.024;2023-12-20T01:39:01;7.77;;;3.33;;
72127;SDS011;60000;51.030;7.024;2023-12-20T01:41:27;12.20;;;4.78;;
72127;SDS011;60000;51.030;7.024;2023-12-20T01:43:52;11.97;;;5.53;;
72127;SDS011;60000;51.030;7.024;2023-12-20T01:46:19;10.03;;;4.80;;
72127;SDS011;60000;51.030;7.024;2023-12-20T01:48:45;11.45;;;5.40;;
72127;SDS011;60000;51.030;7.024;2023-12-20T01:51:11;13.88;;;5.65;;
72127;SDS011;60000;51.030;7.024;2023-12-20T01:53:36;12.20;;;5.45;;
72127;SDS011;60000;51.030;7.024;2023-12-20T01:56:02;15.27;;;5.90;;
72127;SDS011;60000;51.030;7.024;2023-12-20T01:58:28;12.80;;;5.43;;
72127;SDS011;60000;51.030;7.024;2023-12-20T02:00:54;10.47;;;5.00;;
72127;SDS011;60000;51.030;7.024;2023-12-20T02:03:19;14.52;;;6.15;;
72127;SDS011;60000;51.030;7.024;2023-12-20T02:05:46;13.33;;;5.17;;
72127;SDS011;60000;51.030;7.024;2023-12-20T02:08:12;15.13;;;5.32;;
72127;SDS011;60000;51.030;7.024;2023-12-20T02:10:38;10.73;;;4.90;;
72127;SDS011;60000;51.030;7.024;2023-12-20T02:13:05;13.27;;;5.20;;
72127;SDS011;60000;51.030;7.024;2023-12-20T02:15:30;11.00;;;4.73;;
72127;SDS011;60000;51.030;7.024;2023-12-20T02:17:56;11.23;;;4.45;;
72127;SDS011;60000;51.030;7.024;2023-12-20T02:20:21;9.37;;;4.60;;
72127;SDS011;60000;51.030;7.024;2023-12-20T02:22:46;11.23;;;4.30;;
72127;SDS011;60000;51.030;7.024;2023-12-20T02:25:12;8.97;;;4.30;;
72127;SDS011;60000;51.030;7.024;2023-12-20T02:27:37;12.57;;;4.87;;
72127;SDS011;60000;51.030;7.024;2023-12-20T02:30:04;12.40;;;4.68;;
72127;SDS011;60000;51.030;7.024;2023-12-20T02:32:30;10.48;;;4.32;;
72127;SDS011;60000;51.030;7.024;2023-12-20T02:34:55;14.97;;;4.90;;
72127;SDS011;60000;51.030;7.024;2023-12-20T02:37:21;15.48;;;4.47;;
72127;SDS011;60000;51.030;7.024;2023-12-20T02:39:46;10.07;;;3.27;;
72127;SDS011;60000;51.030;7.024;2023-12-20T02:42:12;11.33;;;3.60;;
72127;SDS011;60000;51.030;7.024;2023-12-20T02:44:37;13.43;;;3.70;;
72127;SDS011;60000;51.030;7.024;2023-12-20T02:47:03;16.53;;;3.93;;
72127;SDS011;60000;51.030;7.024;2023-12-20T02:51:55;13.57;;;3.63;;
72127;SDS011;60000;51.030;7.024;2023-12-20T02:54:21;12.57;;;3.23;;
72127;SDS011;60000;51.030;7.024;2023-12-20T02:56:46;9.47;;;3.33;;
72127;SDS011;60000;51.030;7.024;2023-12-20T02:59:11;14.63;;;3.58;;
72127;SDS011;60000;51.030;7.024;2023-12-20T03:01:43;12.97;;;3.70;;
72127;SDS011;60000;51.030;7.024;2023-12-20T03:04:10;11.93;;;2.72;;
72127;SDS011;60000;51.030;7.024;2023-12-20T03:06:35;11.80;;;2.70;;
72127;SDS011;60000;51.030;7.024;2023-12-20T03:09:01;9.65;;;2.53;;
72127;SDS011;60000;51.030;7.024;2023-12-20T03:11:26;19.67;;;3.35;;
72127;SDS011;60000;51.030;7.024;2023-12-20T03:13:52;11.87;;;2.30;;
72127;SDS011;60000;51.030;7.024;2023-12-20T03:16:18;8.98;;;1.90;;
72127;SDS011;60000;51.030;7.024;2023-12-20T03:18:43;8.60;;;1.75;;
72127;SDS011;60000;51.030;7.024;2023-12-20T03:21:09;11.80;;;1.93;;
72127;SDS011;60000;51.030;7.024;2023-12-20T03:23:34;14.87;;;1.77;;
72127;SDS011;60000;51.030;7.024;2023-12-20T03:25:59;11.63;;;2.03;;
72127;SDS011;60000;51.030;7.024;2023-12-20T03:28:25;16.15;;;2.63;;
72127;SDS011;60000;51.030;7.024;2023-12-20T03:30:51;8.23;;;1.92;;
72127;SDS011;60000;51.030;7.024;2023-12-20T03:33:16;11.45;;;2.03;;
72127;SDS011;60000;51.030;7.024;2023-12-20T03:35:42;8.40;;;2.50;;
72127;SDS011;60000;51.030;7.024;2023-12-20T03:38:07;12.57;;;2.33;;
72127;SDS011;60000;51.030;7.024;2023-12-20T03:40:33;11.87;;;2.20;;
72127;SDS011;60000;51.030;7.024;2023-12-20T03:42:58;13.37;;;2.80;;
72127;SDS011;60000;51.030;7.024;2023-12-20T03:45:23;10.73;;;2.17;;
72127;SDS011;60000;51.030;7.024;2023-12-20T03:47:49;11.80;;;2.03;;
72127;SDS011;60000;51.030;7.024;2023-12-20T03:50:14;10.32;;;2.20;;
72127;SDS011;60000;51.030;7.024;2023-12-20T03:52:40;11.30;;;2.20;;
72127;SDS011;60000;51.030;7.024;2023-12-20T03:55:05;13.93;;;2.23;;
72127;SDS011;60000;51.030;7.024;2023-12-20T03:57:31;11.55;;;2.45;;
72127;SDS011;60000;51.030;7.024;2023-12-20T03:59:56;12.67;;;2.00;;
72127;SDS011;60000;51.030;7.024;2023-12-20T04:02:21;15.23;;;3.00;;
72127;SDS011;60000;51.030;7.024;2023-12-20T04:04:47;10.57;;;2.10;;
72127;SDS011;60000;51.030;7.024;2023-12-20T04:07:12;11.10;;;2.13;;
72127;SDS011;60000;51.030;7.024;2023-12-20T04:09:37;14.30;;;2.07;;
72127;SDS011;60000;51.030;7.024;2023-12-20T04:12:02;10.43;;;2.10;;
72127;SDS011;60000;51.030;7.024;2023-12-20T04:14:28;10.43;;;2.40;;
72127;SDS011;60000;51.030;7.024;2023-12-20T04:16:53;12.20;;;3.00;;
72127;SDS011;60000;51.030;7.024;2023-12-20T04:19:19;15.77;;;2.90;;
72127;SDS011;60000;51.030;7.024;2023-12-20T04:21:44;12.83;;;2.60;;
72127;SDS011;60000;51.030;7.024;2023-12-20T04:24:09;11.70;;;2.63;;
72127;SDS011;60000;51.030;7.024;2023-12-20T04:26:35;10.03;;;2.40;;
72127;SDS011;60000;51.030;7.024;2023-12-20T04:29:00;10.10;;;2.47;;
72127;SDS011;60000;51.030;7.024;2023-12-20T04:31:25;15.30;;;2.83;;
72127;SDS011;60000;51.030;7.024;2023-12-20T04:33:51;11.03;;;2.37;;
72127;SDS011;60000;51.030;7.024;2023-12-20T04:36:16;15.93;;;2.70;;
72127;SDS011;60000;51.030;7.024;2023-12-20T04:38:41;13.70;;;3.50;;
72127;SDS011;60000;51.030;7.024;2023-12-20T04:41:07;14.00;;;3.27;;
72127;SDS011;60000;51.030;7.024;2023-12-20T04:43:32;13.90;;;3.47;;
72127;SDS011;60000;51.030;7.024;2023-12-20T04:45:58;14.93;;;3.13;;
72127;SDS011;60000;51.030;7.024;2023-12-20T04:48:23;13.10;;;2.60;;
72127;SDS011;60000;51.030;7.024;2023-12-20T04:50:48;11.70;;;2.57;;
72127;SDS011;60000;51.030;7.024;2023-12-20T04:53:13;12.20;;;2.77;;
72127;SDS011;60000;51.030;7.024;2023-12-20T04:55:39;12.53;;;3.50;;
72127;SDS011;60000;51.030;7.024;2023-12-20T04:58:04;16.25;;;3.25;;
72127;SDS011;60000;51.030;7.024;2023-12-20T05:00:29;13.53;;;2.90;;
72127;SDS011;60000;51.030;7.024;2023-12-20T05:02:55;11.00;;;3.63;;
72127;SDS011;60000;51.030;7.024;2023-12-20T05:05:20;18.53;;;3.73;;
72127;SDS011;60000;51.030;7.024;2023-12-20T05:07:45;11.57;;;3.70;;
72127;SDS011;60000;51.030;7.024;2023-12-20T05:10:11;15.53;;;3.77;;
72127;SDS011;60000;51.030;7.024;2023-12-20T05:12:36;19.37;;;4.07;;
72127;SDS011;60000;51.030;7.024;2023-12-20T05:15:01;14.80;;;3.83;;
72127;SDS011;60000;51.030;7.024;2023-12-20T05:17:27;15.97;;;3.47;;
72127;SDS011;60000;51.030;7.024;2023-12-20T05:19:52;13.38;;;3.22;;
72127;SDS011;60000;51.030;7.024;2023-12-20T05:22:18;13.02;;;3.30;;
72127;SDS011;60000;51.030;7.024;2023-12-20T05:24:44;14.73;;;3.53;;
72127;SDS011;60000;51.030;7.024;2023-12-20T05:27:10;16.10;;;3.10;;
72127;SDS011;60000;51.030;7.024;2023-12-20T05:29:36;13.20;;;3.83;;
72127;SDS011;60000;51.030;7.024;2023-12-20T05:32:01;16.47;;;2.80;;
72127;SDS011;60000;51.030;7.024;2023-12-20T05:34:28;16.45;;;3.13;;
72127;SDS011;60000;51.030;7.024;2023-12-20T05:36:53;14.53;;;3.30;;
72127;SDS011;60000;51.030;7.024;2023-12-20T05:39:19;15.93;;;3.07;;
72127;SDS011;60000;51.030;7.024;2023-12-20T05:41:44;11.20;;;3.57;;
72127;SDS011;60000;51.030;7.024;2023-12-20T05:44:09;13.93;;;3.00;;
72127;SDS011;60000;51.030;7.024;2023-12-20T05:46:35;11.57;;;3.00;;
72127;SDS011;60000;51.030;7.024;2023-12-20T05:49:01;15.85;;;3.15;;
72127;SDS011;60000;51.030;7.024;2023-12-20T05:51:27;18.13;;;3.43;;
72127;SDS011;60000;51.030;7.024;2023-12-20T05:53:52;16.40;;;3.40;;
72127;SDS011;60000;51.030;7.024;2023-12-20T05:56:17;12.67;;;2.67;;
72127;SDS011;60000;51.030;7.024;2023-12-20T05:58:43;14.90;;;3.60;;
72127;SDS011;60000;51.030;7.024;2023-12-20T06:01:08;11.60;;;3.20;;
72127;SDS011;60000;51.030;7.024;2023-12-20T06:03:34;15.47;;;3.40;;
72127;SDS011;60000;51.030;7.024;2023-12-20T06:06:03;15.60;;;3.37;;
72127;SDS011;60000;51.030;7.024;2023-12-20T06:08:31;13.60;;;3.20;;
72127;SDS011;60000;51.030;7.024;2023-12-20T06:10:56;14.17;;;3.93;;
72127;SDS011;60000;51.030;7.024;2023-12-20T06:13:21;12.30;;;3.67;;
72127;SDS011;60000;51.030;7.024;2023-12-20T06:15:47;16.03;;;3.30;;
72127;SDS011;60000;51.030;7.024;2023-12-20T06:18:12;20.10;;;4.10;;
72127;SDS011;60000;51.030;7.024;2023-12-20T06:20:37;13.00;;;3.60;;
72127;SDS011;60000;51.030;7.024;2023-12-20T06:23:02;12.80;;;3.57;;
72127;SDS011;60000;51.030;7.024;2023-12-20T06:25:28;18.00;;;4.60;;
72127;SDS011;60000;51.030;7.024;2023-12-20T06:27:53;13.53;;;4.27;;
72127;SDS011;60000;51.030;7.024;2023-12-20T06:30:18;16.90;;;3.33;;
72127;SDS011;60000;51.030;7.024;2023-12-20T06:32:44;21.48;;;4.18;;
72127;SDS011;60000;51.030;7.024;2023-12-20T06:35:11;13.77;;;2.90;;
72127;SDS011;60000;51.030;7.024;2023-12-20T06:37:37;12.10;;;2.90;;
72127;SDS011;60000;51.030;7.024;2023-12-20T06:40:02;13.65;;;2.85;;
72127;SDS011;60000;51.030;7.024;2023-12-20T06:42:28;14.07;;;3.30;;
72127;SDS011;60000;51.030;7.024;2023-12-20T06:44:53;15.13;;;3.03;;
72127;SDS011;60000;51.030;7.024;2023-12-20T06:47:18;11.00;;;2.90;;
72127;SDS011;60000;51.030;7.024;2023-12-20T06:49:43;17.63;;;3.53;;
72127;SDS011;60000;51.030;7.024;2023-12-20T06:52:09;22.10;;;3.63;;
72127;SDS011;60000;51.030;7.024;2023-12-20T06:54:34;14.07;;;3.07;;
72127;SDS011;60000;51.030;7.024;2023-12-20T06:57:00;19.87;;;3.90;;
72127;SDS011;60000;51.030;7.024;2023-12-20T06:59:25;12.65;;;2.97;;
72127;SDS011;60000;51.030;7.024;2023-12-20T07:01:51;14.83;;;2.93;;
72127;SDS011;60000;51.030;7.024;2023-12-20T07:04:16;12.60;;;2.87;;
72127;SDS011;60000;51.030;7.024;2023-12-20T07:06:45;14.68;;;3.22;;
72127;SDS011;60000;51.030;7.024;2023-12-20T07:09:11;15.73;;;3.53;;
72127;SDS011;60000;51.030;7.024;2023-12-20T07:11:38;17.52;;;3.50;;
72127;SDS011;60000;51.030;7.024;2023-12-20T07:14:03;12.23;;;2.80;;
72127;SDS011;60000;51.030;7.024;2023-12-20T07:16:28;14.23;;;3.27;;
72127;SDS011;60000;51.030;7.024;2023-12-20T07:18:54;18.40;;;2.97;;
72127;SDS011;60000;51.030;7.024;2023-12-20T07:21:19;12.82;;;2.83;;
72127;SDS011;60000;51.030;7.024;2023-12-20T07:23:45;14.80;;;2.73;;
72127;SDS011;60000;51.030;7.024;2023-12-20T07:26:10;12.57;;;2.87;;
72127;SDS011;60000;51.030;7.024;2023-12-20T07:28:36;17.50;;;3.35;;
72127;SDS011;60000;51.030;7.024;2023-12-20T07:31:01;14.07;;;3.53;;
72127;SDS011;60000;51.030;7.024;2023-12-20T07:33:27;13.57;;;3.17;;
72127;SDS011;60000;51.030;7.024;2023-12-20T07:35:52;14.40;;;3.13;;
72127;SDS011;60000;51.030;7.024;2023-12-20T07:38:17;17.63;;;3.30;;
72127;SDS011;60000;51.030;7.024;2023-12-20T07:40:42;15.07;;;3.70;;
72127;SDS011;60000;51.030;7.024;2023-12-20T07:43:08;13.33;;;3.50;;
72127;SDS011;60000;51.030;7.024;2023-12-20T07:45:33;13.00;;;4.30;;
72127;SDS011;60000;51.030;7.024;2023-12-20T07:47:58;16.08;;;5.03;;
72127;SDS011;60000;51.030;7.024;2023-12-20T07:50:24;20.40;;;5.33;;
72127;SDS011;60000;51.030;7.024;2023-12-20T07:52:49;20.27;;;4.57;;
72127;SDS011;60000;51.030;7.024;2023-12-20T07:55:14;23.83;;;6.03;;
72127;SDS011;60000;51.030;7.024;2023-12-20T07:57:40;21.10;;;7.03;;
72127;SDS011;60000;51.030;7.024;2023-12-20T08:00:05;14.17;;;4.27;;
72127;SDS011;60000;51.030;7.024;2023-12-20T08:02:31;17.85;;;4.50;;
72127;SDS011;60000;51.030;7.024;2023-12-20T08:04:56;12.73;;;3.83;;
72127;SDS011;60000;51.030;7.024;2023-12-20T08:07:22;20.87;;;5.57;;
72127;SDS011;60000;51.030;7.024;2023-12-20T08:09:47;17.03;;;5.47;;
72127;SDS011;60000;51.030;7.024;2023-12-20T08:12:12;21.30;;;5.87;;
72127;SDS011;60000;51.030;7.024;2023-12-20T08:14:37;13.40;;;4.17;;
72127;SDS011;60000;51.030;7.024;2023-12-20T08:17:03;19.17;;;3.93;;
72127;SDS011;60000;51.030;7.024;2023-12-20T08:19:28;18.40;;;4.13;;
72127;SDS011;60000;51.030;7.024;2023-12-20T08:21:53;19.97;;;4.80;;
72127;SDS011;60000;51.030;7.024;2023-12-20T08:24:19;15.40;;;3.67;;
72127;SDS011;60000;51.030;7.024;2023-12-20T08:26:44;15.73;;;3.30;;
72127;SDS011;60000;51.030;7.024;2023-12-20T08:29:12;9.55;;;2.75;;
72127;SDS011;60000;51.030;7.024;2023-12-20T08:31:38;19.73;;;3.70;;
72127;SDS011;60000;51.030;7.024;2023-12-20T08:34:03;15.03;;;3.57;;
72127;SDS011;60000;51.030;7.024;2023-12-20T08:36:28;17.35;;;4.18;;
72127;SDS011;60000;51.030;7.024;2023-12-20T08:38:55;11.47;;;3.40;;
72127;SDS011;60000;51.030;7.024;2023-12-20T08:41:20;16.23;;;3.97;;
72127;SDS011;60000;51.030;7.024;2023-12-20T08:43:45;18.70;;;4.10;;
72127;SDS011;60000;51.030;7.024;2023-12-20T08:46:11;10.90;;;2.17;;
72127;SDS011;60000;51.030;7.024;2023-12-20T08:48:37;15.73;;;3.33;;
72127;SDS011;60000;51.030;7.024;2023-12-20T08:51:02;15.88;;;3.10;;
72127;SDS011;60000;51.030;7.024;2023-12-20T08:53:28;16.63;;;2.90;;
72127;SDS011;60000;51.030;7.024;2023-12-20T08:55:54;13.30;;;3.03;;
72127;SDS011;60000;51.030;7.024;2023-12-20T08:58:19;9.13;;;3.00;;
72127;SDS011;60000;51.030;7.024;2023-12-20T09:00:44;15.63;;;3.43;;
72127;SDS011;60000;51.030;7.024;2023-12-20T09:03:10;13.37;;;3.27;;
72127;SDS011;60000;51.030;7.024;2023-12-20T09:05:35;14.67;;;2.77;;
72127;SDS011;60000;51.030;7.024;2023-12-20T09:08:01;12.43;;;2.65;;
72127;SDS011;60000;51.030;7.024;2023-12-20T09:10:26;14.98;;;3.13;;
72127;SDS011;60000;51.030;7.024;2023-12-20T09:12:51;15.73;;;2.90;;
72127;SDS011;60000;51.030;7.024;2023-12-20T09:15:25;16.13;;;3.70;;
72127;SDS011;60000;51.030;7.024;2023-12-20T09:17:51;13.23;;;3.55;;
72127;SDS011;60000;51.030;7.024;2023-12-20T09:20:17;16.63;;;3.03;;
72127;SDS011;60000;51.030;7.024;2023-12-20T09:22:43;16.42;;;3.28;;
72127;SDS011;60000;51.030;7.024;2023-12-20T09:25:09;15.98;;;4.05;;
72127;SDS011;60000;51.030;7.024;2023-12-20T09:27:36;20.73;;;4.23;;
72127;SDS011;60000;51.030;7.024;2023-12-20T09:30:01;15.25;;;3.92;;
72127;SDS011;60000;51.030;7.024;2023-12-20T09:32:26;15.00;;;3.07;;
72127;SDS011;60000;51.030;7.024;2023-12-20T09:34:52;14.20;;;3.10;;
72127;SDS011;60000;51.030;7.024;2023-12-20T09:37:17;13.70;;;3.50;;
72127;SDS011;60000;51.030;7.024;2023-12-20T09:39:42;10.97;;;3.60;;
72127;SDS011;60000;51.030;7.024;2023-12-20T09:42:08;18.20;;;3.43;;
72127;SDS011;60000;51.030;7.024;2023-12-20T09:44:36;14.02;;;3.53;;
72127;SDS011;60000;51.030;7.024;2023-12-20T09:47:02;13.57;;;3.53;;
72127;SDS011;60000;51.030;7.024;2023-12-20T09:49:29;13.55;;;3.72;;
72127;SDS011;60000;51.030;7.024;2023-12-20T09:51:55;13.23;;;3.60;;
72127;SDS011;60000;51.030;7.024;2023-12-20T09:54:21;13.77;;;3.85;;
72127;SDS011;60000;51.030;7.024;2023-12-20T09:56:47;18.10;;;3.87;;
72127;SDS011;60000;51.030;7.024;2023-12-20T09:59:13;17.25;;;4.30;;
72127;SDS011;60000;51.030;7.024;2023-12-20T10:01:39;13.60;;;3.83;;
72127;SDS011;60000;51.030;7.024;2023-12-20T10:04:06;17.07;;;3.23;;
72127;SDS011;60000;51.030;7.024;2023-12-20T10:06:35;14.40;;;3.35;;
72127;SDS011;60000;51.030;7.024;2023-12-20T10:09:01;13.63;;;4.40;;
72127;SDS011;60000;51.030;7.024;2023-12-20T10:11:27;14.40;;;3.60;;
72127;SDS011;60000;51.030;7.024;2023-12-20T10:13:58;15.87;;;2.80;;
72127;SDS011;60000;51.030;7.024;2023-12-20T10:16:26;14.13;;;2.92;;
72127;SDS011;60000;51.030;7.024;2023-12-20T10:18:52;10.23;;;2.80;;
72127;SDS011;60000;51.030;7.024;2023-12-20T10:21:18;13.23;;;2.80;;
72127;SDS011;60000;51.030;7.024;2023-12-20T10:23:43;12.33;;;3.20;;
72127;SDS011;60000;51.030;7.024;2023-12-20T10:26:09;14.63;;;3.15;;
72127;SDS011;60000;51.030;7.024;2023-12-20T10:28:34;10.98;;;2.80;;
72127;SDS011;60000;51.030;7.024;2023-12-20T10:31:00;12.50;;;3.67;;
72127;SDS011;60000;51.030;7.024;2023-12-20T10:33:26;13.32;;;3.30;;
72127;SDS011;60000;51.030;7.024;2023-12-20T10:35:53;9.80;;;2.60;;
72127;SDS011;60000;51.030;7.024;2023-12-20T10:38:21;9.95;;;2.35;;
72127;SDS011;60000;51.030;7.024;2023-12-20T10:40:47;11.35;;;2.45;;
72127;SDS011;60000;51.030;7.024;2023-12-20T10:43:12;12.00;;;3.08;;
72127;SDS011;60000;51.030;7.024;2023-12-20T10:45:41;15.57;;;3.33;;
72127;SDS011;60000;51.030;7.024;2023-12-20T10:48:09;11.68;;;3.45;;
72127;SDS011;60000;51.030;7.024;2023-12-20T10:50:36;12.52;;;3.58;;
72127;SDS011;60000;51.030;7.024;2023-12-20T10:53:03;22.73;;;4.20;;
72127;SDS011;60000;51.030;7.024;2023-12-20T10:55:29;13.93;;;3.70;;
72127;SDS011;60000;51.030;7.024;2023-12-20T10:58:00;15.10;;;2.83;;
72127;SDS011;60000;51.030;7.024;2023-12-20T11:00:27;13.68;;;3.25;;
72127;SDS011;60000;51.030;7.024;2023-12-20T11:02:55;13.02;;;3.17;;
72127;SDS011;60000;51.030;7.024;2023-12-20T11:07:52;10.20;;;3.03;;
72127;SDS011;60000;51.030;7.024;2023-12-20T11:10:30;13.88;;;3.30;;
72127;SDS011;60000;51.030;7.024;2023-12-20T11:15:42;12.18;;;3.60;;
72127;SDS011;60000;51.030;7.024;2023-12-20T11:18:08;14.53;;;3.53;;
72127;SDS011;60000;51.030;7.024;2023-12-20T11:20:40;13.10;;;3.92;;
72127;SDS011;60000;51.030;7.024;2023-12-20T11:23:07;17.40;;;3.10;;
72127;SDS011;60000;51.030;7.024;2023-12-20T11:25:52;14.90;;;3.28;;
72127;SDS011;60000;51.030;7.024;2023-12-20T11:28:22;18.95;;;3.47;;
72127;SDS011;60000;51.030;7.024;2023-12-20T11:30:52;19.10;;;2.80;;
72127;SDS011;60000;51.030;7.024;2023-12-20T11:33:26;16.42;;;3.35;;
72127;SDS011;60000;51.030;7.024;2023-12-20T11:35:55;12.77;;;2.87;;
72127;SDS011;60000;51.030;7.024;2023-12-20T11:38:21;15.32;;;2.53;;
72127;SDS011;60000;51.030;7.024;2023-12-20T11:40:48;17.92;;;3.38;;
72127;SDS011;60000;51.030;7.024;2023-12-20T11:43:31;13.73;;;2.60;;
72127;SDS011;60000;51.030;7.024;2023-12-20T11:46:06;15.00;;;3.10;;
72127;SDS011;60000;51.030;7.024;2023-12-20T11:48:34;16.08;;;3.25;;
72127;SDS011;60000;51.030;7.024;2023-12-20T11:51:00;13.40;;;2.97;;
72127;SDS011;60000;51.030;7.024;2023-12-20T11:53:26;12.35;;;3.33;;
72127;SDS011;60000;51.030;7.024;2023-12-20T11:55:51;15.33;;;3.70;;
72127;SDS011;60000;51.030;7.024;2023-12-20T11:58:19;15.37;;;3.30;;
72127;SDS011;60000;51.030;7.024;2023-12-20T12:00:44;13.75;;;3.40;;
72127;SDS011;60000;51.030;7.024;2023-12-20T12:03:10;14.73;;;3.73;;
72127;SDS011;60000;51.030;7.024;2023-12-20T12:05:35;11.80;;;2.77;;
72127;SDS011;60000;51.030;7.024;2023-12-20T12:08:01;14.40;;;3.10;;
72127;SDS011;60000;51.030;7.024;2023-12-20T12:10:27;15.73;;;3.70;;
72127;SDS011;60000;51.030;7.024;2023-12-20T12:12:52;13.40;;;3.97;;
72127;SDS011;60000;51.030;7.024;2023-12-20T12:15:18;16.25;;;3.50;;
72127;SDS011;60000;51.030;7.024;2023-12-20T12:17:44;14.80;;;3.33;;
72127;SDS011;60000;51.030;7.024;2023-12-20T12:20:19;15.55;;;3.75;;
72127;SDS011;60000;51.030;7.024;2023-12-20T12:22:45;11.77;;;3.90;;
72127;SDS011;60000;51.030;7.024;2023-12-20T12:25:12;17.58;;;3.50;;
72127;SDS011;60000;51.030;7.024;2023-12-20T12:27:41;14.52;;;3.92;;
72127;SDS011;60000;51.030;7.024;2023-12-20T12:30:07;13.73;;;3.27;;
72127;SDS011;60000;51.030;7.024;2023-12-20T12:32:34;14.85;;;4.13;;
72127;SDS011;60000;51.030;7.024;2023-12-20T12:35:00;10.77;;;3.90;;
72127;SDS011;60000;51.030;7.024;2023-12-20T12:37:25;16.80;;;5.00;;
72127;SDS011;60000;51.030;7.024;2023-12-20T12:39:53;15.50;;;4.20;;
72127;SDS011;60000;51.030;7.024;2023-12-20T12:42:18;15.93;;;4.77;;
72127;SDS011;60000;51.030;7.024;2023-12-20T12:44:44;10.60;;;3.78;;
72127;SDS011;60000;51.030;7.024;2023-12-20T12:47:09;14.55;;;4.88;;
72127;SDS011;60000;51.030;7.024;2023-12-20T12:49:34;16.57;;;6.20;;
72127;SDS011;60000;51.030;7.024;2023-12-20T12:52:00;14.80;;;5.07;;
72127;SDS011;60000;51.030;7.024;2023-12-20T12:54:31;13.73;;;4.33;;
72127;SDS011;60000;51.030;7.024;2023-12-20T12:56:56;23.02;;;6.25;;
72127;SDS011;60000;51.030;7.024;2023-12-20T12:59:23;17.03;;;4.67;;
72127;SDS011;60000;51.030;7.024;2023-12-20T13:01:48;18.45;;;5.70;;
72127;SDS011;60000;51.030;7.024;2023-12-20T13:04:13;13.83;;;4.90;;
72127;SDS011;60000;51.030;7.024;2023-12-20T13:06:39;13.93;;;4.63;;
72127;SDS011;60000;51.030;7.024;2023-12-20T13:09:06;15.70;;;4.80;;
72127;SDS011;60000;51.030;7.024;2023-12-20T13:11:31;20.47;;;5.40;;
72127;SDS011;60000;51.030;7.024;2023-12-20T13:13:57;12.73;;;5.03;;
72127;SDS011;60000;51.030;7.024;2023-12-20T13:16:23;16.90;;;5.18;;
72127;SDS011;60000;51.030;7.024;2023-12-20T13:18:49;14.13;;;5.20;;
72127;SDS011;60000;51.030;7.024;2023-12-20T13:21:14;13.40;;;4.45;;
72127;SDS011;60000;51.030;7.024;2023-12-20T13:23:40;14.70;;;4.73;;
72127;SDS011;60000;51.030;7.024;2023-12-20T13:26:05;16.20;;;5.50;;
72127;SDS011;60000;51.030;7.024;2023-12-20T13:28:32;14.95;;;5.10;;
72127;SDS011;60000;51.030;7.024;2023-12-20T13:30:57;15.93;;;4.97;;
72127;SDS011;60000;51.030;7.024;2023-12-20T13:33:22;14.10;;;4.37;;
72127;SDS011;60000;51.030;7.024;2023-12-20T13:35:48;11.27;;;3.63;;
72127;SDS011;60000;51.030;7.024;2023-12-20T13:38:13;13.50;;;4.20;;
72127;SDS011;60000;51.030;7.024;2023-12-20T13:40:39;14.52;;;5.00;;
72127;SDS011;60000;51.030;7.024;2023-12-20T13:43:05;19.77;;;5.60;;
72127;SDS011;60000;51.030;7.024;2023-12-20T13:45:30;15.43;;;5.45;;
72127;SDS011;60000;51.030;7.024;2023-12-20T13:47:56;15.33;;;4.87;;
72127;SDS011;60000;51.030;7.024;2023-12-20T13:50:21;11.10;;;4.43;;
72127;SDS011;60000;51.030;7.024;2023-12-20T13:52:47;14.68;;;4.40;;
72127;SDS011;60000;51.030;7.024;2023-12-20T13:55:13;12.40;;;3.47;;
72127;SDS011;60000;51.030;7.024;2023-12-20T13:57:38;13.13;;;3.50;;
72127;SDS011;60000;51.030;7.024;2023-12-20T14:00:05;13.15;;;3.78;;
72127;SDS011;60000;51.030;7.024;2023-12-20T14:02:30;13.85;;;4.47;;
72127;SDS011;60000;51.030;7.024;2023-12-20T14:04:56;14.87;;;6.20;;
72127;SDS011;60000;51.030;7.024;2023-12-20T14:07:21;15.23;;;6.17;;
72127;SDS011;60000;51.030;7.024;2023-12-20T14:09:46;15.23;;;5.17;;
72127;SDS011;60000;51.030;7.024;2023-12-20T14:12:12;15.35;;;5.50;;
72127;SDS011;60000;51.030;7.024;2023-12-20T14:14:38;13.30;;;4.63;;
72127;SDS011;60000;51.030;7.024;2023-12-20T14:17:03;10.97;;;4.63;;
72127;SDS011;60000;51.030;7.024;2023-12-20T14:19:31;13.55;;;4.03;;
72127;SDS011;60000;51.030;7.024;2023-12-20T14:21:57;16.13;;;5.78;;
72127;SDS011;60000;51.030;7.024;2023-12-20T14:24:26;13.45;;;4.93;;
72127;SDS011;60000;51.030;7.024;2023-12-20T14:26:51;14.73;;;3.72;;
72127;SDS011;60000;51.030;7.024;2023-12-20T14:29:17;13.77;;;4.82;;
72127;SDS011;60000;51.030;7.024;2023-12-20T14:31:42;10.10;;;3.40;;
72127;SDS011;60000;51.030;7.024;2023-12-20T14:34:07;14.50;;;4.33;;
72127;SDS011;60000;51.030;7.024;2023-12-20T14:36:34;17.67;;;4.63;;